Glenwood Springs, CO

10:56 AM MST on March 01, 2015 (GMT -0700)
Eagle County Regional | Change Station
CLOSE
Current Station
Airport
Location: Eagle,
Elevation: 6539 ft
Nearby Weather Stations
Active Advisory: Winter Weather Advisory

Elev 6539 ft 39.64 °N, 106.91 °W | Updated 6 minutes ago

Overcast
Overcast
39 °F
Feels Like 39 °F
N
0
Wind Variable Wind from North

Today
High -- | Low -- °F
--% Chance of Precip.
Yesterday
High -- | Low -- °F
Precip. -- in
6:42 AM 6:01 PM
Waxing Gibbous, 86% visible
Pressure 30.10 in
Visibility 10.0 miles
Clouds Few 6000 ft
Mostly Cloudy 11000 ft
Dew Point 32 °F
Humidity 75%
Rainfall 0.00 in
Snow Depth Not available.
UV 3 out of 12
Pollen 1.80 out of 12
Air Quality Not available.
Flu Activity Not available.
METAR KEGE 011750Z 00000KT 10SM FEW060 BKN110 04/00 A3010

More Conditions Fewer Conditions

Pressure 30.10 in
Visibility 10.0 miles
Clouds Few 6000 ft
Mostly Cloudy 11000 ft
Dew Point 32 °F
Humidity 75%
Rainfall 0.00 in
Snow Depth Not available.
UV 3 out of 12
Pollen 1.80 out of 12
Air Quality Not available.
Flu Activity Not available.
METAR KEGE 011750Z 00000KT 10SM FEW060 BKN110 04/00 A3010

More Conditions Fewer Conditions

10-Day Weather Forecast

Almanac

Astronomy

Mar. 01, 2015 Rise Set
Actual Time
Civil Twilight
Nautical Twilight
Astronomical Twilight
Moon
Length of Visible Light
Length of Day
Tomorrow will be .
, % of the Moon is Illuminated

Today's Extremes

State Highs State Lows

Community

WunderPhotos

Upload Photos

1,801,483 photos uploaded!

WunderBlogs® & News

Nearby

Air Quality

  Air Quality AQ Index Pollutant
Not available.

Snow Depth

Station Depth Elevation

Earthquake Activity

City Distance Mag. Time & Date
Minimum magnitude displayed is 2.5.

Coastal Water Temperatures

Place Temperature

Nearby Weather Stations

Winter Weather Advisory
Statement as of 5:49 AM MST on March 01, 2015

... Winter Weather Advisory remains in effect until 8 am MST
Monday...

* locations include the cities of... Glenwood Springs... Eagle...
Carbondale.

* Timing... snow will continue intermittently through Monday
evening. Lulls in the activity can also be expected.

* Snow accumulation... 3 to 6 inches.

* Winds... southwest 5 to 10 mph.

* Visibility... restricted at times in heavy snow.

* Impacts... travel is expected to be difficult through Tuesday.

Precautionary/preparedness actions...

A Winter Weather Advisory means that periods of snow and/or
blowing snow will cause travel difficulties. Be prepared for
slippery roads and limited visibilities... and use caution while
driving.